Time;durP1;ratioP1;P1;durP2;ratioP2;P2;SDS_P1;SDS_P2;PMS_P1;PMS_P2;Temp;Humidity;BMP_temperature;BMP_pressure;BME280_temperature;BME280_humidity;BME280_pressure;Samples;Min_cycle;Max_cycle;Signal;HPM_P1;HPM_P2
2022/07/22 00:00:57;;;;;;;15.73;9.18;;;;;;;22.92;51.94;92860.31;4754685;30;20077;-73
2022/07/22 00:03:23;;;;;;;16.58;9.38;;;;;;;22.88;52.13;92864.81;4770784;30;20071;-73
2022/07/22 00:05:49;;;;;;;17.60;9.30;;;;;;;22.86;52.02;92862.47;4786141;30;20474;-73
2022/07/22 00:08:14;;;;;;;14.27;8.90;;;;;;;22.85;51.99;92858.28;4771077;30;20398;-73
2022/07/22 00:10:40;;;;;;;14.00;8.75;;;;;;;22.85;51.86;92865.50;4752741;30;20043;-73
2022/07/22 00:13:06;;;;;;;17.48;8.77;;;;;;;22.83;51.99;92857.06;4768472;30;20446;-73
2022/07/22 00:15:31;;;;;;;13.68;9.15;;;;;;;22.81;51.92;92862.78;4752701;30;20051;-73
2022/07/22 00:17:57;;;;;;;13.60;8.50;;;;;;;22.79;52.17;92854.34;4752152;30;20043;-73
2022/07/22 00:20:23;;;;;;;13.75;9.10;;;;;;;22.78;52.10;92858.13;4752361;30;20070;-73
2022/07/22 00:22:48;;;;;;;13.52;8.82;;;;;;;22.76;52.17;92863.03;4763084;30;20487;-73
2022/07/22 00:25:14;;;;;;;13.82;8.27;;;;;;;22.74;52.21;92859.19;4770292;30;20043;-74
2022/07/22 00:27:40;;;;;;;20.30;8.70;;;;;;;22.72;52.24;92861.44;4750351;30;20575;-74
2022/07/22 00:30:06;;;;;;;13.05;8.73;;;;;;;22.69;52.18;92860.25;4752289;30;20212;-73
2022/07/22 00:32:32;;;;;;;13.98;9.15;;;;;;;22.66;52.52;92855.63;4752430;30;20121;-73
2022/07/22 00:34:58;;;;;;;13.98;8.98;;;;;;;22.63;52.75;92859.00;4760800;30;20509;-73
2022/07/22 00:37:23;;;;;;;13.23;8.45;;;;;;;22.59;52.60;92858.94;4750297;30;20035;-73
2022/07/22 00:39:49;;;;;;;13.90;8.85;;;;;;;22.56;52.93;92858.84;4767099;30;20118;-73
2022/07/22 00:42:15;;;;;;;17.25;9.10;;;;;;;22.51;53.36;92857.22;4769764;30;20050;-74
2022/07/22 00:44:41;;;;;;;12.18;8.75;;;;;;;22.49;53.31;92856.81;4786014;30;20047;-73
2022/07/22 00:47:07;;;;;;;12.40;8.90;;;;;;;22.47;53.28;92856.38;4768835;30;20031;-73
2022/07/22 00:49:33;;;;;;;14.55;9.20;;;;;;;22.45;53.52;92858.66;4784259;30;20529;-73
2022/07/22 00:51:59;;;;;;;14.70;9.32;;;;;;;22.41;53.51;92855.16;4767832;30;20031;-74
2022/07/22 00:54:24;;;;;;;16.38;9.27;;;;;;;22.39;53.76;92855.47;4768147;30;20072;-73
2022/07/22 00:56:50;;;;;;;13.57;9.18;;;;;;;22.36;54.28;92847.41;4737389;30;20109;-73
2022/07/22 00:59:16;;;;;;;14.02;9.52;;;;;;;22.33;54.44;92845.44;4756314;30;20506;-73
2022/07/22 01:01:41;;;;;;;15.80;9.75;;;;;;;22.29;54.70;92844.59;4769800;30;20067;-73
2022/07/22 01:04:07;;;;;;;13.05;9.13;;;;;;;22.23;54.46;92847.56;4769542;30;20053;-73
2022/07/22 01:06:33;;;;;;;16.98;9.02;;;;;;;22.22;54.90;92853.22;4769686;30;20043;-74
2022/07/22 01:08:59;;;;;;;11.73;8.80;;;;;;;22.21;54.80;92844.47;4778104;30;20538;-74
2022/07/22 01:11:26;;;;;;;12.88;8.75;;;;;;;22.18;55.02;92839.81;4767699;30;20052;-74
2022/07/22 01:13:54;;;;;;;16.90;9.43;;;;;;;22.17;55.47;92848.91;4754747;30;20126;-74
2022/07/22 01:16:21;;;;;;;13.60;8.82;;;;;;;22.16;55.77;92847.38;4753936;30;20040;-74
2022/07/22 01:18:47;;;;;;;16.55;9.35;;;;;;;22.14;55.95;92846.94;4753018;30;20096;-74
2022/07/22 01:21:14;;;;;;;14.43;9.30;;;;;;;22.16;55.66;92852.72;4756727;30;20052;-73
2022/07/22 01:23:40;;;;;;;12.43;9.30;;;;;;;22.16;55.23;92847.38;4757678;30;20039;-74
2022/07/22 01:26:06;;;;;;;14.88;9.30;;;;;;;22.15;55.51;92845.81;4754903;30;20043;-74
2022/07/22 01:28:32;;;;;;;13.02;9.88;;;;;;;22.15;55.67;92845.81;4754060;30;20050;-74
2022/07/22 01:30:59;;;;;;;15.60;9.63;;;;;;;22.15;55.51;92840.50;4769214;30;20043;-74
2022/07/22 01:33:25;;;;;;;13.63;8.75;;;;;;;22.15;55.21;92845.81;4769425;30;20419;-74
2022/07/22 01:35:51;;;;;;;16.83;9.35;;;;;;;22.14;55.25;92838.97;4751629;30;20041;-74
2022/07/22 01:38:17;;;;;;;16.95;9.50;;;;;;;22.15;55.22;92847.72;4759098;30;20679;-74
2022/07/22 01:40:44;;;;;;;14.95;9.10;;;;;;;22.14;55.22;92846.94;4747552;30;20733;-74
2022/07/22 01:43:10;;;;;;;14.35;9.10;;;;;;;22.15;55.20;92845.06;4767465;30;20409;-74
2022/07/22 01:45:36;;;;;;;13.38;9.20;;;;;;;22.16;55.66;92849.28;4765146;30;20067;-74
2022/07/22 01:48:02;;;;;;;16.35;9.30;;;;;;;22.15;55.67;92843.16;4754406;30;20078;-74
2022/07/22 01:50:29;;;;;;;17.05;9.00;;;;;;;22.15;56.32;92845.81;4757263;30;20036;-75
2022/07/22 01:52:55;;;;;;;13.52;9.07;;;;;;;22.14;56.15;92846.94;4751620;30;20051;-74
2022/07/22 01:55:21;;;;;;;16.05;9.32;;;;;;;22.12;56.13;92843.88;4751140;30;20456;-74
2022/07/22 01:57:47;;;;;;;17.45;9.75;;;;;;;22.12;56.22;92843.88;4757925;30;20071;-74
2022/07/22 02:00:18;;;;;;;14.15;9.35;;;;;;;22.13;56.12;92841.97;4757222;30;20040;-74
2022/07/22 02:02:44;;;;;;;17.50;9.65;;;;;;;22.12;56.21;92841.19;4755843;30;20053;-74
2022/07/22 02:05:10;;;;;;;15.80;8.75;;;;;;;22.12;56.47;92846.53;4750028;30;20048;-74
2022/07/22 02:07:36;;;;;;;13.52;9.13;;;;;;;22.10;56.47;92846.09;4751805;30;20043;-74
2022/07/22 02:10:05;;;;;;;15.18;9.70;;;;;;;22.08;56.48;92840.34;4754905;30;20070;-74
2022/07/22 02:12:33;;;;;;;13.95;9.75;;;;;;;22.07;56.65;92843.38;4769585;30;20043;-74
2022/07/22 02:14:59;;;;;;;15.93;9.18;;;;;;;22.04;56.82;92844.81;4772614;30;20037;-74
2022/07/22 02:17:25;;;;;;;15.23;9.55;;;;;;;22.02;56.59;92847.84;4757763;30;20039;-74
2022/07/22 02:19:51;;;;;;;14.43;9.15;;;;;;;22.00;56.74;92844.00;4763491;30;20093;-74
2022/07/22 02:22:17;;;;;;;13.68;8.80;;;;;;;22.00;57.01;92849.31;4772487;29;20595;-74
2022/07/22 02:24:46;;;;;;;17.75;9.60;;;;;;;21.97;57.32;92844.69;4754755;30;20684;-74
2022/07/22 02:27:12;;;;;;;12.63;9.50;;;;;;;21.94;57.17;92851.47;4762999;30;20047;-74
2022/07/22 02:29:38;;;;;;;15.00;9.45;;;;;;;21.91;57.15;92849.53;4769041;30;20040;-74
2022/07/22 02:32:04;;;;;;;12.43;9.15;;;;;;;21.89;57.58;92848.31;4757264;30;20549;-74
2022/07/22 02:34:30;;;;;;;13.25;9.63;;;;;;;21.90;57.46;92849.84;4754543;30;20051;-74
2022/07/22 02:36:55;;;;;;;16.20;10.02;;;;;;;21.90;57.58;92849.84;4754015;30;20032;-74
2022/07/22 02:39:21;;;;;;;19.02;8.77;;;;;;;21.87;57.67;92850.56;4754213;30;20048;-74
2022/07/22 02:41:47;;;;;;;15.15;9.63;;;;;;;21.85;57.56;92855.47;4782558;30;20071;-74
2022/07/22 02:44:12;;;;;;;13.82;9.80;;;;;;;21.81;58.04;92852.72;4754143;30;20074;-73
2022/07/22 02:46:38;;;;;;;16.85;9.60;;;;;;;21.79;58.04;92853.03;4784323;30;20044;-74
2022/07/22 02:49:15;;;;;;;14.38;9.25;;;;;;;21.75;57.96;92849.56;4783822;29;20511;-74
2022/07/22 02:51:40;;;;;;;15.20;9.95;;;;;;;21.71;58.63;92854.03;4769389;30;20043;-74
2022/07/22 02:54:07;;;;;;;14.93;9.52;;;;;;;21.70;58.15;92857.78;4754097;30;20040;-74
2022/07/22 02:56:32;;;;;;;14.63;9.73;;;;;;;21.67;58.18;92853.16;4754783;30;20051;-75
2022/07/22 02:58:58;;;;;;;15.32;9.48;;;;;;;21.69;58.22;92853.59;4771810;30;20112;-74
2022/07/22 03:01:24;;;;;;;13.55;9.20;;;;;;;21.69;58.20;92847.50;4766649;30;20074;-73
2022/07/22 03:03:54;;;;;;;16.50;9.70;;;;;;;21.69;57.94;92847.50;4755364;30;20088;-74
2022/07/22 03:06:21;;;;;;;16.25;9.65;;;;;;;21.68;58.00;92849.38;4771296;30;20078;-74
2022/07/22 03:08:55;;;;;;;15.75;9.85;;;;;;;21.67;58.34;92855.06;4758075;30;20035;-74
2022/07/22 03:11:21;;;;;;;16.00;9.60;;;;;;;21.63;58.53;92846.97;4756716;30;20050;-74
2022/07/22 03:13:46;;;;;;;16.17;9.77;;;;;;;21.61;58.44;92852.66;4755732;30;20092;-74
2022/07/22 03:16:12;;;;;;;12.43;9.40;;;;;;;21.61;58.35;92855.31;4742797;30;20040;-74
2022/07/22 03:18:38;;;;;;;24.25;9.27;;;;;;;21.59;58.77;92854.13;4753747;30;20068;-74
2022/07/22 03:21:04;;;;;;;15.85;9.32;;;;;;;21.55;59.12;92854.06;4752481;30;20137;-74
2022/07/22 03:23:30;;;;;;;14.75;9.23;;;;;;;21.53;59.07;92852.84;4738805;30;20579;-74
2022/07/22 03:25:59;;;;;;;17.45;9.48;;;;;;;21.50;59.17;92856.19;4753614;30;20130;-74
2022/07/22 03:28:27;;;;;;;15.50;9.68;;;;;;;21.49;58.94;92857.31;4750315;30;20422;-74
2022/07/22 03:30:53;;;;;;;13.95;9.55;;;;;;;21.49;58.92;92863.41;4744450;30;20491;-74
2022/07/22 03:33:18;;;;;;;13.18;9.35;;;;;;;21.48;58.92;92853.09;4766055;30;20126;-74
2022/07/22 03:35:44;;;;;;;14.98;9.20;;;;;;;21.46;59.04;92861.44;4757758;30;20039;-74
2022/07/22 03:38:10;;;;;;;13.80;9.38;;;;;;;21.45;59.29;92865.22;4757623;30;20110;-74
2022/07/22 03:40:36;;;;;;;16.27;9.10;;;;;;;21.44;59.10;92865.56;4739021;30;20131;-74
2022/07/22 03:43:03;;;;;;;15.05;9.73;;;;;;;21.44;59.44;92868.25;4754838;30;20177;-74
2022/07/22 03:45:30;;;;;;;15.18;8.95;;;;;;;21.42;59.36;92866.69;4754870;30;20481;-74
2022/07/22 03:47:57;;;;;;;20.33;9.45;;;;;;;21.40;59.23;92863.59;4738652;30;20131;-74
2022/07/22 03:50:25;;;;;;;17.13;9.38;;;;;;;21.41;59.66;92865.16;4752908;30;20046;-74
2022/07/22 03:52:51;;;;;;;16.73;9.75;;;;;;;21.40;59.80;92860.13;4754764;30;20083;-74
2022/07/22 03:55:16;;;;;;;14.65;9.13;;;;;;;21.39;59.73;92870.00;4765569;30;20046;-73
2022/07/22 03:57:44;;;;;;;16.85;9.35;;;;;;;21.37;60.07;92866.91;4770886;30;20047;-74
2022/07/22 04:00:18;;;;;;;11.95;9.13;;;;;;;21.37;59.94;92866.16;4770674;30;20039;-74
2022/07/22 04:02:45;;;;;;;18.40;10.07;;;;;;;21.37;59.88;92866.91;4770662;30;20048;-74
2022/07/22 04:05:19;;;;;;;21.48;9.15;;;;;;;21.38;60.06;92863.13;4757120;30;20035;-74
2022/07/22 04:07:45;;;;;;;12.68;9.13;;;;;;;21.38;59.64;92857.78;4752990;30;20097;-74
2022/07/22 04:10:11;;;;;;;12.20;9.30;;;;;;;21.39;59.79;92859.34;4743716;30;20040;-74
2022/07/22 04:12:40;;;;;;;12.15;8.82;;;;;;;21.38;60.21;92860.47;4755449;30;20047;-74
2022/07/22 04:15:14;;;;;;;16.90;9.00;;;;;;;21.38;60.08;92863.13;4779535;30;20517;-74
2022/07/22 04:17:39;;;;;;;14.68;9.63;;;;;;;21.38;60.07;92863.13;4740754;29;20138;-74
2022/07/22 04:20:06;;;;;;;14.27;9.00;;;;;;;21.38;60.52;92868.44;4752232;30;20039;-75
2022/07/22 04:22:41;;;;;;;20.95;9.27;;;;;;;21.38;60.22;92863.13;4773305;29;20766;-76
2022/07/22 04:25:07;;;;;;;19.20;8.60;;;;;;;21.40;60.38;92862.78;4772062;29;20126;-76
2022/07/22 04:27:33;;;;;;;18.00;9.18;;;;;;;21.43;60.25;92864.78;4753857;30;20082;-75
2022/07/22 04:29:59;;;;;;;17.58;9.10;;;;;;;21.46;60.18;92863.31;4758453;30;20055;-76
2022/07/22 04:32:24;;;;;;;17.83;8.82;;;;;;;21.47;59.97;92860.31;4755984;30;20090;-75
2022/07/22 04:34:50;;;;;;;13.52;9.52;;;;;;;21.50;60.22;92874.84;4767319;30;20126;-76
2022/07/22 04:37:15;;;;;;;14.13;9.32;;;;;;;21.53;60.52;92866.16;4747907;30;20067;-75
2022/07/22 04:39:41;;;;;;;16.50;9.13;;;;;;;21.54;60.92;92865.81;4754804;30;20047;-76
2022/07/22 04:42:07;;;;;;;13.43;9.43;;;;;;;21.55;60.78;92861.28;4757766;30;20117;-76
2022/07/22 04:44:32;;;;;;;18.55;10.02;;;;;;;21.60;60.73;92866.34;4767754;29;20092;-76
2022/07/22 04:46:58;;;;;;;13.55;9.43;;;;;;;21.61;60.89;92862.53;4755403;30;20040;-75
2022/07/22 04:49:25;;;;;;;14.82;9.52;;;;;;;21.66;60.86;92864.97;4737040;30;20171;-76
2022/07/22 04:51:52;;;;;;;18.45;9.82;;;;;;;21.69;61.23;92864.25;4747874;30;20582;-75
2022/07/22 04:54:27;;;;;;;19.70;10.10;;;;;;;21.75;60.93;92864.75;4760151;30;20522;-76
2022/07/22 04:56:57;;;;;;;14.07;9.80;;;;;;;21.79;60.95;92874.38;4753551;29;20051;-75
2022/07/22 04:59:22;;;;;;;14.73;9.70;;;;;;;21.85;61.09;92874.13;4751435;30;21829;-75
2022/07/22 05:01:48;;;;;;;15.18;9.63;;;;;;;21.90;60.58;92869.28;4760497;30;20545;-76
2022/07/22 05:04:13;;;;;;;16.00;10.00;;;;;;;21.98;60.76;92872.88;4751311;30;20058;-75
2022/07/22 05:06:42;;;;;;;13.90;9.88;;;;;;;22.03;60.82;92873.38;4737289;30;20055;-76
2022/07/22 05:09:08;;;;;;;14.18;10.00;;;;;;;22.12;60.84;92872.41;4754158;30;20027;-76
2022/07/22 05:11:34;;;;;;;16.35;10.25;;;;;;;22.18;60.61;92871.81;4764368;30;20522;-76
2022/07/22 05:14:01;;;;;;;16.00;9.73;;;;;;;22.26;60.43;92877.31;4752574;30;20546;-76
2022/07/22 05:16:27;;;;;;;15.10;9.73;;;;;;;22.33;60.23;92872.13;4751753;30;20086;-76
2022/07/22 05:18:53;;;;;;;18.55;9.90;;;;;;;22.41;60.17;92879.16;4737158;30;20051;-76
2022/07/22 05:21:20;;;;;;;16.33;9.90;;;;;;;22.48;59.93;92884.63;4754838;30;20075;-76
2022/07/22 05:23:45;;;;;;;11.80;9.40;;;;;;;22.57;59.59;92881.75;4760382;30;20086;-76
2022/07/22 05:26:13;;;;;;;15.35;9.43;;;;;;;22.66;59.38;92885.75;4755906;30;20507;-76
2022/07/22 05:28:38;;;;;;;11.80;9.48;;;;;;;22.77;59.01;92885.19;4767448;30;20047;-76
2022/07/22 05:31:04;;;;;;;14.45;9.07;;;;;;;22.87;59.00;92884.59;4753982;30;20681;-76
2022/07/22 05:33:31;;;;;;;12.93;9.55;;;;;;;22.96;59.59;92881.72;4751103;30;20040;-75
2022/07/22 05:36:06;;;;;;;14.27;9.73;;;;;;;23.05;59.61;92882.28;4751353;30;20734;-75
2022/07/22 05:38:37;;;;;;;14.30;9.63;;;;;;;23.14;59.38;92879.38;4767803;30;20046;-76
2022/07/22 05:41:02;;;;;;;15.27;9.60;;;;;;;23.21;59.17;92880.28;4764161;30;20040;-76
2022/07/22 05:43:28;;;;;;;16.27;9.98;;;;;;;23.31;59.32;92886.94;4754208;29;20063;-76
2022/07/22 05:45:54;;;;;;;13.18;9.18;;;;;;;23.41;59.59;92891.69;4770424;30;20117;-76
2022/07/22 05:48:20;;;;;;;17.08;9.90;;;;;;;23.52;59.50;92883.06;4772886;30;20507;-76
2022/07/22 05:50:46;;;;;;;16.05;10.13;;;;;;;23.64;59.46;92882.88;4759827;30;20039;-76
2022/07/22 05:53:12;;;;;;;13.32;10.00;;;;;;;23.74;59.67;92887.63;4756213;30;20044;-76
2022/07/22 05:55:38;;;;;;;17.13;10.20;;;;;;;23.86;59.42;92890.13;4772494;30;20047;-76
2022/07/22 05:58:03;;;;;;;13.52;9.73;;;;;;;24.03;59.08;92893.44;4758001;30;20414;-77
2022/07/22 06:00:29;;;;;;;15.10;9.63;;;;;;;24.45;58.53;92892.44;4764207;30;20071;-77
2022/07/22 06:02:56;;;;;;;16.55;9.85;;;;;;;25.05;57.36;92892.41;4763526;30;20051;-76
2022/07/22 06:05:22;;;;;;;15.10;10.07;;;;;;;25.69;51.48;92891.47;4757005;30;20040;-77
2022/07/22 06:07:48;;;;;;;17.13;9.95;;;;;;;26.06;51.35;92904.06;4754733;30;20096;-77
2022/07/22 06:10:24;;;;;;;15.88;9.68;;;;;;;26.37;51.62;92891.97;4765534;30;20718;-77
2022/07/22 06:12:50;;;;;;;20.17;11.05;;;;;;;26.43;51.01;92897.75;4757857;30;20043;-78
2022/07/22 06:15:15;;;;;;;16.25;10.68;;;;;;;26.62;50.68;92897.50;4769686;30;20031;-77
2022/07/22 06:17:41;;;;;;;18.10;10.63;;;;;;;26.97;48.54;92896.09;4769417;30;20442;-78
2022/07/22 06:20:08;;;;;;;16.50;10.85;;;;;;;27.23;48.58;92907.72;4758609;30;20051;-78
2022/07/22 06:22:34;;;;;;;27.17;11.25;;;;;;;27.18;49.26;92904.22;4773466;29;20067;-77
2022/07/22 06:25:00;;;;;;;94.57;16.17;;;;;;;27.06;49.53;92903.78;4775986;29;20046;-77
2022/07/22 06:27:25;;;;;;;20.27;10.75;;;;;;;26.82;49.50;92900.66;4788503;29;20184;-77
2022/07/22 06:29:53;;;;;;;27.08;12.13;;;;;;;27.04;49.48;92906.84;4772302;30;20418;-77
2022/07/22 06:32:18;;;;;;;57.65;14.20;;;;;;;26.68;49.80;92906.75;4784814;29;20050;-77
2022/07/22 06:34:44;;;;;;;17.98;11.48;;;;;;;26.65;50.30;92912.09;4784030;29;20142;-76
2022/07/22 06:37:10;;;;;;;17.20;11.18;;;;;;;26.81;49.00;92909.84;4773604;29;20039;-80
2022/07/22 06:39:36;;;;;;;19.70;11.50;;;;;;;27.23;48.93;92913.09;4790545;29;20046;-77
2022/07/22 06:42:24;;;;;;;21.42;12.13;;;;;;;27.71;48.48;92916.22;4789461;29;20046;-77
2022/07/22 06:44:52;;;;;;;17.70;12.05;;;;;;;27.85;47.83;92915.47;4806264;29;20091;-77
2022/07/22 06:47:39;;;;;;;15.27;11.70;;;;;;;28.00;47.22;92922.38;4779889;30;20473;-77
2022/07/22 06:50:09;;;;;;;22.73;11.60;;;;;;;28.29;46.14;92919.66;4772264;30;20089;-77
2022/07/22 06:52:39;;;;;;;18.27;11.73;;;;;;;28.16;48.03;92921.22;4771596;30;20556;-77
2022/07/22 06:55:05;;;;;;;19.67;12.23;;;;;;;27.95;48.98;92920.09;4756935;29;20051;-77
2022/07/22 06:57:34;;;;;;;21.95;12.35;;;;;;;27.86;48.93;92922.41;4761647;30;20134;-77
2022/07/22 07:00:00;;;;;;;25.02;13.35;;;;;;;27.33;48.56;92923.84;4772205;30;20472;-77
2022/07/22 07:02:28;;;;;;;24.38;12.48;;;;;;;27.49;49.74;92920.78;4766504;29;20133;-77
2022/07/22 07:04:53;;;;;;;27.33;13.32;;;;;;;27.52;48.59;92924.66;4789371;29;20138;-77
2022/07/22 07:07:19;;;;;;;23.40;13.35;;;;;;;27.63;49.54;92922.75;4786731;29;20054;-77
2022/07/22 07:09:54;;;;;;;22.67;12.90;;;;;;;27.64;48.72;92920.81;4787485;30;20553;-77
2022/07/22 07:12:30;;;;;;;23.65;13.13;;;;;;;27.55;48.44;92919.28;4771251;30;20671;-77
2022/07/22 07:15:08;;;;;;;24.95;13.10;;;;;;;27.79;49.25;92923.13;4787972;30;20143;-76
2022/07/22 07:17:34;;;;;;;20.77;12.90;;;;;;;27.80;48.93;92921.22;4771689;29;20060;-76
2022/07/22 07:20:01;;;;;;;22.23;13.68;;;;;;;27.65;49.19;92927.72;4775848;29;20066;-77
2022/07/22 07:22:26;;;;;;;30.90;13.63;;;;;;;27.63;49.27;92922.75;4805143;29;20097;-76
2022/07/22 07:24:52;;;;;;;23.40;12.90;;;;;;;27.75;48.92;92932.34;4774385;29;20141;-76
2022/07/22 07:27:18;;;;;;;23.05;12.75;;;;;;;27.81;48.14;92920.06;4789046;29;20042;-76
2022/07/22 07:29:45;;;;;;;24.25;13.77;;;;;;;27.96;47.96;92918.94;4787993;29;20042;-76
2022/07/22 07:32:12;;;;;;;18.35;12.95;;;;;;;27.95;47.42;92914.72;4774296;30;20047;-76
2022/07/22 07:34:38;;;;;;;20.83;13.48;;;;;;;28.09;47.86;92916.63;4772577;30;20039;-76
2022/07/22 07:37:04;;;;;;;20.17;13.38;;;;;;;28.16;47.43;92916.59;4756355;30;20042;-76
2022/07/22 07:39:30;;;;;;;26.90;13.10;;;;;;;27.85;47.97;92923.53;4771344;30;20043;-77
2022/07/22 07:41:55;;;;;;;22.73;13.70;;;;;;;27.99;48.02;92923.56;4783925;29;20490;-76
2022/07/22 07:44:22;;;;;;;25.48;14.13;;;;;;;28.01;47.78;92923.94;4788970;29;20501;-76
2022/07/22 07:46:48;;;;;;;29.73;14.38;;;;;;;27.68;48.25;92926.97;4788799;29;20574;-76
2022/07/22 07:49:13;;;;;;;22.80;14.52;;;;;;;27.85;48.31;92925.47;4774035;29;20073;-77
2022/07/22 07:51:39;;;;;;;19.45;13.85;;;;;;;27.93;47.06;92927.00;4786646;29;20022;-76
2022/07/22 07:54:04;;;;;;;20.95;13.38;;;;;;;27.80;48.34;92930.03;4788572;29;20057;-76
2022/07/22 07:56:31;;;;;;;21.80;14.13;;;;;;;27.67;47.85;92920.06;4773646;29;20049;-76
2022/07/22 07:58:56;;;;;;;19.48;13.30;;;;;;;27.69;47.98;92928.50;4788587;29;20489;-76
2022/07/22 08:01:23;;;;;;;22.80;14.48;;;;;;;27.95;46.79;92924.72;4756525;29;20039;-76
2022/07/22 08:03:49;;;;;;;23.70;13.95;;;;;;;28.16;46.94;92927.38;4777972;29;20038;-76
2022/07/22 08:06:15;;;;;;;25.23;14.25;;;;;;;28.02;45.73;92930.09;4788097;29;20422;-76
2022/07/22 08:08:40;;;;;;;21.02;15.23;;;;;;;28.30;46.65;92929.28;4787555;29;20039;-77
2022/07/22 08:11:14;;;;;;;20.13;13.05;;;;;;;28.34;45.54;92932.72;4786261;30;20395;-76
2022/07/22 08:13:58;;;;;;;22.92;14.07;;;;;;;28.15;47.63;92930.47;4789199;29;20076;-77
2022/07/22 08:16:37;;;;;;;28.15;14.02;;;;;;;27.86;47.66;92935.84;4803801;29;21379;-77
2022/07/22 08:19:03;;;;;;;21.58;13.25;;;;;;;28.16;47.74;92934.69;4788080;29;20055;-77
2022/07/22 08:21:29;;;;;;;22.80;13.38;;;;;;;27.95;49.06;92930.84;4787485;29;20546;-77
2022/07/22 08:23:57;;;;;;;23.67;13.73;;;;;;;27.64;49.19;92934.28;4785516;29;20474;-76
2022/07/22 08:26:23;;;;;;;23.05;13.50;;;;;;;27.70;49.56;92932.75;4770783;30;20529;-76
2022/07/22 08:28:49;;;;;;;25.80;14.15;;;;;;;27.87;49.89;92932.00;4770002;30;20035;-76
2022/07/22 08:31:14;;;;;;;34.65;14.48;;;;;;;28.03;48.11;92931.59;4755681;30;20515;-76
2022/07/22 08:33:40;;;;;;;21.80;14.30;;;;;;;28.09;48.33;92934.69;4769841;30;20088;-77
2022/07/22 08:36:06;;;;;;;23.30;13.98;;;;;;;28.23;48.96;92930.06;4787713;29;20502;-77
2022/07/22 08:38:32;;;;;;;27.77;14.50;;;;;;;28.26;47.85;92931.22;4771097;29;20050;-77
2022/07/22 08:41:00;;;;;;;27.55;13.95;;;;;;;27.91;48.27;92934.69;4787806;29;20050;-76
2022/07/22 08:43:25;;;;;;;24.38;14.45;;;;;;;27.91;48.61;92935.47;4787883;29;20031;-76
2022/07/22 08:45:52;;;;;;;22.30;14.40;;;;;;;28.16;48.51;92932.00;4785862;29;20046;-77
2022/07/22 08:48:18;;;;;;;23.48;14.75;;;;;;;27.95;48.82;92936.22;4787832;29;20047;-77
2022/07/22 08:50:59;;;;;;;19.88;14.13;;;;;;;28.06;48.41;92932.78;4803971;29;20966;-76
2022/07/22 08:53:31;;;;;;;;;;;;;;;28.11;48.88;92927.78;4786489;29;20096;-76
2022/07/22 08:56:01;;;;;;;25.73;15.90;;;;;;;28.18;47.49;92935.06;4785787;29;19924;-77
2022/07/22 08:58:27;;;;;;;24.33;15.30;;;;;;;28.19;48.00;92934.69;4787566;29;20794;-76
2022/07/22 09:01:09;;;;;;;27.08;14.75;;;;;;;28.38;47.43;92930.03;4787294;29;20053;-76
2022/07/22 09:03:49;;;;;;;22.23;14.75;;;;;;;28.39;46.53;92931.56;4786874;29;20039;-76
2022/07/22 09:06:18;;;;;;;21.80;15.35;;;;;;;28.40;47.13;92933.13;4785903;29;20042;-76
2022/07/22 09:08:58;;;;;;;26.15;14.18;;;;;;;28.73;46.63;92934.63;4787247;29;20045;-76
2022/07/22 09:11:42;;;;;;;25.67;14.40;;;;;;;28.81;45.74;92935.34;4795823;29;20137;-76
2022/07/22 09:14:10;;;;;;;20.15;14.07;;;;;;;28.44;46.55;92933.88;4803409;29;20038;-76
2022/07/22 09:16:54;;;;;;;23.58;14.82;;;;;;;28.74;46.34;92935.38;4801576;29;20541;-76
2022/07/22 09:19:41;;;;;;;27.75;14.95;;;;;;;28.42;46.05;92941.59;4786344;29;20114;-77
2022/07/22 09:22:41;;;;;;;30.23;15.30;;;;;;;28.20;46.58;92935.44;4772596;30;20166;-76
2022/07/22 09:25:21;;;;;;;23.55;15.00;;;;;;;28.16;47.31;92940.81;4769045;30;20061;-76
2022/07/22 09:28:16;;;;;;;22.40;15.07;;;;;;;28.39;45.91;92932.34;4739139;30;20078;-76
2022/07/22 09:31:02;;;;;;;52.67;17.85;;;;;;;28.58;45.26;92935.81;4727148;30;20048;-76
2022/07/22 09:33:32;;;;;;;28.02;14.68;;;;;;;28.76;45.48;92944.59;4760684;30;20129;-76
2022/07/22 09:36:15;;;;;;;27.02;14.60;;;;;;;29.00;45.19;92942.97;4785239;30;20529;-77
2022/07/22 09:38:42;;;;;;;25.42;15.38;;;;;;;28.98;44.16;92933.72;4751388;30;20043;-76
2022/07/22 09:41:07;;;;;;;26.42;14.98;;;;;;;29.13;44.35;92937.94;4762471;30;20074;-76
2022/07/22 09:43:36;;;;;;;25.70;14.80;;;;;;;29.38;43.55;92934.34;4752890;30;20100;-76
2022/07/22 09:46:04;;;;;;;24.20;14.60;;;;;;;29.61;43.36;92934.59;4769257;30;20433;-76
2022/07/22 09:49:01;;;;;;;22.67;14.50;;;;;;;29.34;44.70;92938.97;4784952;30;20066;-76
2022/07/22 09:51:53;;;;;;;25.83;15.60;;;;;;;29.61;43.89;92933.81;4773084;30;20054;-78
2022/07/22 09:54:25;;;;;;;;;;;;;;;29.39;44.43;92927.81;4766860;30;20051;-76
2022/07/22 09:56:52;;;;;;;26.15;14.88;;;;;;;29.50;43.85;92927.72;4755042;30;19921;-78
2022/07/22 09:59:18;;;;;;;23.40;15.25;;;;;;;29.70;42.81;92934.19;4759358;30;20508;-76
2022/07/22 10:01:57;;;;;;;25.85;15.00;;;;;;;29.82;41.86;92935.63;4750533;30;20074;-76
2022/07/22 10:04:24;;;;;;;26.23;15.32;;;;;;;30.03;41.70;92930.06;4752755;30;20042;-76
2022/07/22 10:06:50;;;;;;;24.13;14.82;;;;;;;29.93;42.58;92930.94;4750959;30;20039;-76
2022/07/22 10:09:21;;;;;;;23.73;15.43;;;;;;;29.73;42.27;92932.63;4753651;30;20047;-78
2022/07/22 10:11:48;;;;;;;24.85;14.05;;;;;;;29.93;42.14;92939.03;4764885;30;20059;-76
2022/07/22 10:14:18;;;;;;;26.10;15.18;;;;;;;30.03;41.63;92929.31;4767183;30;20027;-76
2022/07/22 10:16:44;;;;;;;25.70;15.45;;;;;;;29.99;42.18;92928.56;4770425;30;20047;-79
2022/07/22 10:19:10;;;;;;;22.58;14.93;;;;;;;29.94;42.78;92932.44;4786080;30;20040;-74
2022/07/22 10:21:37;;;;;;;23.70;15.85;;;;;;;30.01;40.89;92927.00;4768798;30;20096;-76
2022/07/22 10:24:17;;;;;;;33.40;15.38;;;;;;;30.25;41.00;92919.84;4767773;30;20466;-76
2022/07/22 10:27:02;;;;;;;25.55;15.38;;;;;;;30.33;41.09;92926.00;4768814;30;20043;-76
2022/07/22 10:29:38;;;;;;;20.10;12.65;;;;;;;30.38;40.68;92925.56;4768944;30;20126;-77
2022/07/22 10:32:16;;;;;;;27.33;14.73;;;;;;;30.20;40.95;92923.00;4787468;29;20036;-77
2022/07/22 10:35:23;;;;;;;23.65;15.48;;;;;;;30.36;40.67;92919.78;4790220;30;20051;-76
2022/07/22 10:37:51;;;;;;;20.30;14.23;;;;;;;30.45;40.53;92917.38;4773460;30;20074;-79
2022/07/22 10:40:21;;;;;;;25.27;15.35;;;;;;;30.52;40.79;92915.78;4789906;30;20035;-77
2022/07/22 10:43:07;;;;;;;24.02;15.25;;;;;;;30.30;39.70;92911.34;4789138;30;20050;-78
2022/07/22 10:45:41;;;;;;;21.30;14.70;;;;;;;30.34;41.32;92918.66;4784997;30;20537;-78
2022/07/22 10:48:10;;;;;;;25.35;14.90;;;;;;;30.33;39.57;92912.50;4771589;30;20123;-77
2022/07/22 10:50:35;;;;;;;25.10;14.95;;;;;;;30.42;39.67;92912.00;4771523;30;20031;-77
2022/07/22 10:53:02;;;;;;;24.77;15.95;;;;;;;30.09;39.67;92911.53;4774676;30;20050;-77
2022/07/22 10:55:28;;;;;;;25.27;14.50;;;;;;;30.44;41.51;92906.97;4754350;30;20136;-77
2022/07/22 10:57:54;;;;;;;26.45;16.05;;;;;;;30.27;39.41;92908.69;4784714;30;20571;-77
2022/07/22 11:00:20;;;;;;;28.20;14.98;;;;;;;30.07;40.09;92909.22;4780605;30;20039;-77
2022/07/22 11:02:46;;;;;;;25.83;15.07;;;;;;;30.00;41.37;92909.28;4751872;30;20051;-77
2022/07/22 11:05:13;;;;;;;23.10;14.00;;;;;;;30.19;39.13;92907.19;4755842;30;20043;-76
2022/07/22 11:07:45;;;;;;;29.17;15.32;;;;;;;30.07;39.72;92909.22;4780961;30;20043;-76
2022/07/22 11:10:16;;;;;;;26.85;14.23;;;;;;;29.79;41.06;92904.03;4771723;30;20130;-78
2022/07/22 11:12:43;;;;;;;25.48;15.35;;;;;;;29.85;38.82;92907.84;4787781;30;20043;-76
2022/07/22 11:15:10;;;;;;;23.15;15.15;;;;;;;30.24;38.92;92901.34;4758781;30;20103;-75
2022/07/22 11:17:38;;;;;;;26.05;15.98;;;;;;;30.22;37.09;92909.09;4758397;30;20158;-76
2022/07/22 11:20:06;;;;;;;28.73;14.32;;;;;;;30.49;36.89;92899.19;4765690;30;20123;-76
2022/07/22 11:22:32;;;;;;;26.25;14.40;;;;;;;30.62;36.61;92896.75;4786967;29;20080;-77
2022/07/22 11:25:01;;;;;;;23.13;14.57;;;;;;;30.52;37.66;92894.16;4798164;29;20433;-76
2022/07/22 11:27:27;;;;;;;19.88;14.10;;;;;;;30.72;37.44;92897.81;4803201;29;20126;-76